Time;durP1;ratioP1;P1;durP2;ratioP2;P2;SDS_P1;SDS_P2;PMS_P1;PMS_P2;Temp;Humidity;BMP_temperature;BMP_pressure;BME280_temperature;BME280_humidity;BME280_pressure;Samples;Min_cycle;Max_cycle;Signal;HPM_P1;HPM_P2
2022/07/18 00:01:43;;;;;;;5.30;3.38;;;;;;;17.08;66.62;102305.03;5091774;28;20042;-61
2022/07/18 00:04:08;;;;;;;4.93;3.17;;;;;;;17.09;66.90;102293.56;5091942;28;20039;-62
2022/07/18 00:06:33;;;;;;;6.72;3.38;;;;;;;17.17;66.01;102294.28;5091761;28;20040;-61
2022/07/18 00:08:59;;;;;;;5.75;3.58;;;;;;;17.10;65.94;102299.72;5091973;28;20040;-61
2022/07/18 00:11:24;;;;;;;6.40;3.50;;;;;;;17.04;66.38;102295.41;5091921;28;20028;-61
2022/07/18 00:13:51;;;;;;;5.47;3.42;;;;;;;17.03;65.97;102294.53;5091702;28;20122;-60
2022/07/18 00:16:16;;;;;;;5.78;3.58;;;;;;;16.96;66.07;102295.53;5091957;28;20640;-60
2022/07/18 00:18:41;;;;;;;7.07;3.45;;;;;;;16.88;66.64;102291.25;5091542;28;20100;-59
2022/07/18 00:21:07;;;;;;;6.15;3.58;;;;;;;16.93;66.67;102295.59;5091745;28;20062;-60
2022/07/18 00:23:32;;;;;;;6.10;3.53;;;;;;;16.96;66.62;102284.97;5091670;28;20039;-60
2022/07/18 00:25:58;;;;;;;4.70;3.20;;;;;;;16.94;66.89;102286.75;5091450;28;20096;-61
2022/07/18 00:28:23;;;;;;;7.90;3.67;;;;;;;16.86;67.44;102283.34;5091723;28;20036;-60
2022/07/18 00:30:48;;;;;;;8.90;3.72;;;;;;;16.84;67.37;102278.97;5091617;28;20070;-60
2022/07/18 00:33:13;;;;;;;6.40;3.50;;;;;;;16.85;67.29;102268.38;5091643;28;20042;-60
2022/07/18 00:35:39;;;;;;;6.30;3.60;;;;;;;16.95;66.79;102269.13;5091367;28;20040;-60
2022/07/18 00:38:04;;;;;;;7.25;3.72;;;;;;;16.88;66.53;102270.97;5091372;28;20032;-60
2022/07/18 00:40:31;;;;;;;5.80;3.70;;;;;;;16.88;66.79;102270.09;5091412;28;20068;-60
2022/07/18 00:42:56;;;;;;;7.10;3.80;;;;;;;16.85;67.00;102265.75;5091621;28;20047;-60
2022/07/18 00:45:22;;;;;;;7.72;3.90;;;;;;;16.89;66.63;102256.88;5091695;28;20028;-60
2022/07/18 00:47:47;;;;;;;5.47;3.92;;;;;;;16.89;66.40;102262.16;5091682;28;20119;-60
2022/07/18 00:50:13;;;;;;;7.10;4.20;;;;;;;16.70;66.94;102260.72;5091397;28;20036;-60
2022/07/18 00:52:39;;;;;;;6.38;3.80;;;;;;;16.69;66.64;102253.66;5091441;28;20360;-60
2022/07/18 00:55:05;;;;;;;7.90;3.88;;;;;;;16.56;66.60;102262.66;5091572;28;20078;-61
2022/07/18 00:57:31;;;;;;;7.30;4.03;;;;;;;16.46;67.03;102261.03;5091363;28;20028;-61
2022/07/18 01:02:40;;;;;;;7.85;4.40;;;;;;;16.53;67.15;102262.72;5091113;28;20121;-60
2022/07/18 01:05:08;;;;;;;6.68;3.65;;;;;;;16.50;67.48;102260.09;5091230;28;20431;-61
2022/07/18 01:07:36;;;;;;;5.85;3.90;;;;;;;16.52;67.23;102248.63;5091406;28;20032;-60
2022/07/18 01:10:04;;;;;;;8.70;3.97;;;;;;;16.45;67.84;102260.16;5091396;28;20032;-60
2022/07/18 01:12:30;;;;;;;9.05;4.43;;;;;;;16.47;67.62;102253.09;5091202;28;20123;-59
2022/07/18 01:14:57;;;;;;;7.97;4.18;;;;;;;16.47;67.01;102257.50;5091175;28;20420;-60
2022/07/18 01:17:23;;;;;;;7.63;4.28;;;;;;;16.37;67.66;102243.56;5091071;28;20071;-61
2022/07/18 01:19:48;;;;;;;7.00;3.95;;;;;;;16.32;68.00;102238.34;5091248;28;20067;-60
2022/07/18 01:22:16;;;;;;;8.05;3.72;;;;;;;16.32;67.84;102240.13;5096568;28;20038;-59
2022/07/18 01:24:42;;;;;;;6.55;3.90;;;;;;;16.27;67.34;102239.34;5111386;28;20339;-61
2022/07/18 01:27:07;;;;;;;7.72;4.10;;;;;;;16.16;67.83;102238.59;5111528;28;20031;-60
2022/07/18 01:29:32;;;;;;;6.93;4.03;;;;;;;15.99;68.80;102242.34;5111457;28;20067;-59
2022/07/18 01:32:08;;;;;;;5.75;4.07;;;;;;;15.97;68.21;102244.13;5111426;28;20059;-60
2022/07/18 01:34:35;;;;;;;7.60;4.40;;;;;;;15.97;68.81;102246.78;5111226;28;20054;-61
2022/07/18 01:37:02;;;;;;;6.38;3.83;;;;;;;15.91;69.13;102238.94;5112083;28;20031;-60
2022/07/18 01:39:27;;;;;;;7.57;4.40;;;;;;;16.00;68.74;102240.56;5115195;28;20032;-61
2022/07/18 01:42:01;;;;;;;6.78;4.28;;;;;;;15.93;68.13;102236.28;5114422;28;20036;-59
2022/07/18 01:44:27;;;;;;;6.65;4.20;;;;;;;15.85;68.77;102230.22;5114984;28;20151;-59
2022/07/18 01:46:53;;;;;;;7.38;4.38;;;;;;;15.94;68.65;102245.94;5114528;28;20538;-59
2022/07/18 01:49:19;;;;;;;6.50;4.50;;;;;;;15.82;68.68;102246.97;5114762;28;20027;-59
2022/07/18 01:51:46;;;;;;;7.40;4.53;;;;;;;15.75;69.04;102242.69;5114669;28;20060;-59
2022/07/18 01:54:11;;;;;;;6.72;4.10;;;;;;;15.74;69.36;102243.56;5114836;28;20042;-59
2022/07/18 01:56:37;;;;;;;6.80;4.07;;;;;;;15.77;69.54;102240.00;5114664;28;20040;-59
2022/07/18 01:59:02;;;;;;;6.88;4.45;;;;;;;15.84;69.03;102239.91;5114519;28;20115;-61
2022/07/18 02:01:28;;;;;;;7.18;4.45;;;;;;;15.76;69.69;102246.19;5114462;28;20064;-61
2022/07/18 02:03:53;;;;;;;7.18;4.43;;;;;;;15.76;69.69;102244.41;5114569;28;20114;-60
2022/07/18 02:06:18;;;;;;;7.90;4.30;;;;;;;15.82;69.16;102240.81;5114508;28;20028;-59
2022/07/18 02:08:44;;;;;;;9.73;4.30;;;;;;;15.83;69.41;102238.16;5114695;28;20040;-60
2022/07/18 02:11:09;;;;;;;9.18;4.50;;;;;;;15.76;69.38;102243.56;5114389;28;20031;-58
2022/07/18 02:13:35;;;;;;;7.57;4.57;;;;;;;15.74;69.80;102232.13;5114313;28;20328;-60
2022/07/18 02:16:00;;;;;;;6.20;4.15;;;;;;;15.66;69.77;102225.19;5114225;28;20107;-58
2022/07/18 02:18:26;;;;;;;6.90;4.47;;;;;;;15.60;70.00;102225.25;5114299;28;20182;-58
2022/07/18 02:20:51;;;;;;;7.05;4.78;;;;;;;15.60;69.88;102225.25;5114320;28;20104;-58
2022/07/18 02:23:16;;;;;;;8.85;4.57;;;;;;;15.56;69.96;102218.28;5114198;28;20495;-58
2022/07/18 02:25:42;;;;;;;6.60;5.00;;;;;;;15.51;70.17;102220.06;5114009;28;20036;-57
2022/07/18 02:28:07;;;;;;;8.35;4.35;;;;;;;15.47;70.66;102214.81;5114074;28;20035;-58
2022/07/18 02:30:33;;;;;;;8.15;4.13;;;;;;;15.48;70.57;102212.19;5113895;28;20350;-59
2022/07/18 02:32:58;;;;;;;8.13;5.07;;;;;;;15.46;70.99;102216.59;5114193;28;20047;-59
2022/07/18 02:35:23;;;;;;;7.68;4.20;;;;;;;15.38;71.20;102220.22;5113866;28;20118;-58
2022/07/18 02:37:49;;;;;;;7.60;4.90;;;;;;;15.45;71.10;102211.34;5113891;28;20126;-59
2022/07/18 02:40:14;;;;;;;7.00;4.72;;;;;;;15.44;70.72;102213.09;5113852;28;20080;-61
2022/07/18 02:42:40;;;;;;;8.18;4.68;;;;;;;15.28;71.42;102207.13;5113796;28;20359;-59
2022/07/18 02:45:06;;;;;;;6.97;4.45;;;;;;;15.22;71.61;102214.25;5113756;28;20035;-59
2022/07/18 02:47:32;;;;;;;6.65;4.90;;;;;;;15.08;72.40;102205.56;5113293;28;20442;-59
2022/07/18 02:49:57;;;;;;;6.65;5.03;;;;;;;15.06;72.63;102210.03;5113658;28;20089;-59
2022/07/18 02:52:22;;;;;;;8.68;6.18;;;;;;;15.00;72.77;102205.69;5113722;28;20028;-58
2022/07/18 02:54:47;;;;;;;7.32;5.50;;;;;;;15.01;72.70;102202.16;5113521;28;20031;-60
2022/07/18 02:57:13;;;;;;;11.68;5.70;;;;;;;15.01;73.04;102196.88;5113435;28;20070;-59
2022/07/18 02:59:38;;;;;;;6.35;5.07;;;;;;;15.01;72.96;102210.06;5113567;28;20445;-59
2022/07/18 03:02:04;;;;;;;10.65;5.05;;;;;;;14.91;73.31;102213.66;5113238;28;20031;-59
2022/07/18 03:04:29;;;;;;;10.13;5.70;;;;;;;14.89;73.52;102211.03;5102887;28;20036;-58
2022/07/18 03:06:54;;;;;;;9.10;5.80;;;;;;;14.86;73.61;102199.66;5092915;28;20368;-59
2022/07/18 03:09:20;;;;;;;8.40;5.28;;;;;;;14.90;73.79;102198.72;5093145;28;20035;-59
2022/07/18 03:11:46;;;;;;;10.68;5.70;;;;;;;14.88;73.79;102203.16;5092911;28;20056;-59
2022/07/18 03:14:12;;;;;;;10.07;5.78;;;;;;;14.94;73.96;102193.41;5092677;28;20044;-59
2022/07/18 03:16:37;;;;;;;10.43;5.15;;;;;;;14.94;73.91;102190.78;5092862;28;20093;-59
2022/07/18 03:19:03;;;;;;;9.27;4.72;;;;;;;14.97;73.67;102177.56;5092699;28;20032;-59
2022/07/18 03:21:28;;;;;;;8.90;5.07;;;;;;;14.97;73.51;102174.06;5092750;28;20036;-59
2022/07/18 03:23:54;;;;;;;7.22;4.70;;;;;;;14.87;73.52;102167.16;5092787;28;20124;-58
2022/07/18 03:26:19;;;;;;;9.75;5.10;;;;;;;14.81;74.15;102172.47;5092516;28;20396;-59
2022/07/18 03:28:45;;;;;;;8.88;5.38;;;;;;;14.72;74.54;102176.06;5092830;28;20034;-59
2022/07/18 03:31:11;;;;;;;6.97;4.97;;;;;;;14.62;75.09;102177.03;5092441;28;20459;-59
2022/07/18 03:33:36;;;;;;;10.00;5.05;;;;;;;14.49;75.63;102168.38;5092495;28;20028;-59
2022/07/18 03:36:01;;;;;;;8.63;5.25;;;;;;;14.46;75.82;102172.78;5092447;28;20104;-59
2022/07/18 03:38:27;;;;;;;7.25;5.20;;;;;;;14.40;75.82;102175.44;5092170;28;20034;-59
2022/07/18 03:40:52;;;;;;;9.38;5.72;;;;;;;14.36;76.63;102171.97;5092265;28;20138;-59
2022/07/18 03:43:17;;;;;;;7.65;5.35;;;;;;;14.40;76.48;102175.44;5092444;28;20028;-59
2022/07/18 03:45:43;;;;;;;7.55;4.78;;;;;;;14.39;76.34;102168.41;5092185;28;20036;-59
2022/07/18 03:48:08;;;;;;;10.77;5.40;;;;;;;14.44;76.26;102179.81;5092234;28;20036;-59
2022/07/18 03:50:33;;;;;;;8.38;4.60;;;;;;;14.37;76.72;102178.13;5092174;28;20036;-59
2022/07/18 03:52:59;;;;;;;8.68;5.15;;;;;;;14.37;76.55;102179.00;5092261;28;20032;-58
2022/07/18 03:55:24;;;;;;;9.88;5.35;;;;;;;14.41;76.91;102177.22;5092056;28;20150;-58
2022/07/18 03:57:50;;;;;;;7.43;5.60;;;;;;;14.45;76.63;102178.94;5091968;28;20031;-59
2022/07/18 04:00:15;;;;;;;7.50;4.78;;;;;;;14.49;76.35;102176.28;5091334;28;20449;-59
2022/07/18 04:02:43;;;;;;;12.02;4.95;;;;;;;14.53;76.11;102172.75;5091999;28;20036;-58
2022/07/18 04:05:09;;;;;;;7.70;5.07;;;;;;;14.52;75.85;102173.63;5092053;28;20044;-57
2022/07/18 04:07:35;;;;;;;6.15;4.35;;;;;;;14.51;76.08;102181.53;5091905;28;20032;-58
2022/07/18 04:10:01;;;;;;;6.97;4.70;;;;;;;14.51;76.27;102174.50;5091281;28;20042;-58
2022/07/18 04:12:26;;;;;;;8.43;4.63;;;;;;;14.59;75.58;102164.75;5091937;28;20149;-58
2022/07/18 04:14:51;;;;;;;9.25;4.90;;;;;;;14.59;75.49;102172.66;5091565;28;20359;-59
2022/07/18 04:17:16;;;;;;;13.20;5.40;;;;;;;14.60;75.58;102174.41;5091736;28;20028;-58
2022/07/18 04:19:42;;;;;;;10.55;4.97;;;;;;;14.61;75.32;102170.91;5091908;28;20036;-58
2022/07/18 04:22:07;;;;;;;8.25;5.03;;;;;;;14.57;75.61;102149.84;5091851;28;20363;-58
2022/07/18 04:24:32;;;;;;;9.65;5.15;;;;;;;14.68;75.87;102155.03;5091762;28;20028;-58
2022/07/18 04:26:57;;;;;;;7.93;4.95;;;;;;;14.76;75.30;102143.53;5091147;28;20091;-58
2022/07/18 04:29:23;;;;;;;9.02;5.28;;;;;;;14.81;75.31;102149.63;5091261;28;20039;-58
2022/07/18 04:31:48;;;;;;;11.15;4.95;;;;;;;14.82;75.64;102147.88;5091563;28;20536;-58
2022/07/18 04:34:13;;;;;;;10.75;5.13;;;;;;;14.92;75.36;102144.22;5091529;28;20450;-58
2022/07/18 04:36:39;;;;;;;7.38;4.88;;;;;;;14.96;75.14;102135.41;5091730;28;20048;-58
2022/07/18 04:39:04;;;;;;;9.52;4.93;;;;;;;15.06;74.67;102134.44;5091519;28;20044;-59
2022/07/18 04:41:29;;;;;;;10.35;5.35;;;;;;;15.07;75.10;102135.28;5091543;28;20052;-59
2022/07/18 04:43:54;;;;;;;11.10;5.25;;;;;;;15.14;74.97;102140.47;5091478;28;20032;-57
2022/07/18 04:46:20;;;;;;;9.32;5.50;;;;;;;15.13;74.86;102127.31;5091522;28;20036;-59
2022/07/18 04:48:45;;;;;;;8.27;5.25;;;;;;;15.15;74.98;102149.25;5091559;28;20038;-58
2022/07/18 04:51:11;;;;;;;10.35;5.43;;;;;;;15.21;75.29;102141.28;5091403;28;20427;-58
2022/07/18 04:53:36;;;;;;;9.07;5.55;;;;;;;15.28;74.65;102133.28;5091900;28;20031;-58
2022/07/18 04:56:01;;;;;;;10.45;5.35;;;;;;;15.30;74.63;102144.69;5091418;28;20132;-58
2022/07/18 04:58:27;;;;;;;7.90;4.75;;;;;;;15.31;74.97;102142.91;5091041;28;20047;-58
2022/07/18 05:00:52;;;;;;;9.32;5.38;;;;;;;15.34;75.16;102150.78;5091395;28;20028;-58
2022/07/18 05:03:18;;;;;;;7.88;5.95;;;;;;;15.43;74.34;102148.03;5091324;28;20036;-58
2022/07/18 05:05:44;;;;;;;11.35;5.45;;;;;;;15.49;75.12;102147.97;5091386;28;20446;-60
2022/07/18 05:08:11;;;;;;;11.80;5.63;;;;;;;15.65;74.41;102146.03;5091475;28;20032;-59
2022/07/18 05:10:37;;;;;;;10.15;5.70;;;;;;;15.76;73.81;102141.47;5091320;28;20458;-60
2022/07/18 05:13:02;;;;;;;9.40;5.43;;;;;;;15.81;73.85;102142.28;5093648;28;20031;-60
2022/07/18 05:15:27;;;;;;;9.07;5.22;;;;;;;15.91;73.61;102143.03;5095068;28;20032;-59
2022/07/18 05:17:53;;;;;;;8.48;5.30;;;;;;;15.94;73.23;102141.19;5094602;28;20327;-59
2022/07/18 05:20:21;;;;;;;9.07;5.55;;;;;;;16.00;73.45;102145.53;5100443;28;20031;-57
2022/07/18 05:22:47;;;;;;;10.75;5.53;;;;;;;16.04;74.16;102149.88;5096576;28;20043;-59
2022/07/18 05:25:13;;;;;;;9.63;5.60;;;;;;;16.07;74.70;102151.59;5104843;28;20035;-58
2022/07/18 05:27:39;;;;;;;8.18;5.38;;;;;;;16.17;73.72;102143.50;5098525;28;20085;-59
2022/07/18 05:30:07;;;;;;;9.90;5.20;;;;;;;16.23;73.36;102142.53;5094649;28;20094;-58
2022/07/18 05:32:32;;;;;;;9.55;5.45;;;;;;;16.30;72.93;102150.31;5095054;28;20039;-60
2022/07/18 05:34:57;;;;;;;11.60;5.85;;;;;;;16.39;72.37;102144.03;5094861;28;20367;-58
2022/07/18 05:37:22;;;;;;;9.68;5.60;;;;;;;16.47;72.77;102147.41;5094875;28;20028;-58
2022/07/18 05:39:50;;;;;;;8.50;5.53;;;;;;;16.53;71.99;102146.44;5094659;28;20063;-58
2022/07/18 05:42:15;;;;;;;11.70;5.32;;;;;;;16.59;72.50;102147.22;5094431;28;20538;-57
2022/07/18 05:44:41;;;;;;;13.35;5.47;;;;;;;16.69;70.70;102145.28;5110607;28;20035;-59
2022/07/18 05:47:07;;;;;;;12.02;5.57;;;;;;;16.78;70.23;102139.84;5114881;28;20049;-58
2022/07/18 05:49:33;;;;;;;11.25;5.60;;;;;;;16.88;69.04;102144.06;5114899;28;20455;-58
2022/07/18 05:51:58;;;;;;;10.23;5.13;;;;;;;16.99;67.78;102147.34;5098996;28;20127;-58
2022/07/18 05:54:23;;;;;;;12.10;6.13;;;;;;;17.13;66.91;102144.47;5094066;28;20115;-58
2022/07/18 05:56:50;;;;;;;11.07;5.40;;;;;;;17.27;65.65;102144.19;5094254;28;20262;-58
2022/07/18 05:59:17;;;;;;;12.82;5.47;;;;;;;17.40;65.52;102146.53;5094041;28;20520;-58
2022/07/18 06:01:42;;;;;;;9.77;5.20;;;;;;;17.53;64.33;102143.63;5094254;28;20040;-59
2022/07/18 06:04:07;;;;;;;12.20;5.35;;;;;;;17.65;63.15;102146.94;5094253;28;20455;-58
2022/07/18 06:06:33;;;;;;;10.40;5.28;;;;;;;17.77;62.27;102142.25;5094324;28;20028;-58
2022/07/18 06:08:58;;;;;;;12.15;5.40;;;;;;;17.88;62.43;102146.41;5094301;28;20060;-57
2022/07/18 06:11:23;;;;;;;12.80;5.13;;;;;;;17.98;62.59;102152.38;5093997;28;20032;-57
2022/07/18 06:13:49;;;;;;;10.32;4.93;;;;;;;18.21;60.80;102143.84;5108918;28;20376;-58
2022/07/18 06:16:14;;;;;;;10.32;4.97;;;;;;;18.41;60.18;102152.19;5114353;28;20038;-58
2022/07/18 06:18:39;;;;;;;11.25;4.85;;;;;;;18.48;60.55;102142.31;5114373;28;20047;-57
2022/07/18 06:21:05;;;;;;;10.32;4.93;;;;;;;18.51;59.26;102131.66;5114309;28;20143;-58
2022/07/18 06:23:30;;;;;;;11.60;5.05;;;;;;;18.59;59.32;102121.72;5113815;28;20165;-58
2022/07/18 06:25:57;;;;;;;9.23;4.68;;;;;;;18.68;58.54;102124.16;5113177;28;20027;-58
2022/07/18 06:28:22;;;;;;;11.43;4.43;;;;;;;18.77;59.04;102124.75;5113911;28;20035;-57
2022/07/18 06:30:47;;;;;;;9.95;4.32;;;;;;;18.86;58.73;102118.34;5094823;28;20044;-58
2022/07/18 06:33:13;;;;;;;11.82;4.60;;;;;;;19.02;57.62;102118.78;5093684;28;20421;-58
2022/07/18 06:35:39;;;;;;;9.38;4.65;;;;;;;19.24;57.42;102113.72;5093745;28;20486;-58
2022/07/18 06:38:05;;;;;;;8.57;4.47;;;;;;;19.26;57.07;102114.53;5093492;28;20036;-58
2022/07/18 06:40:30;;;;;;;8.50;4.05;;;;;;;19.28;56.48;102112.72;5093502;28;20028;-58
2022/07/18 06:42:55;;;;;;;10.18;4.28;;;;;;;19.31;55.89;102108.19;5093349;28;20047;-58
2022/07/18 06:45:21;;;;;;;11.88;4.38;;;;;;;19.38;56.44;102108.91;5093226;28;20062;-58
2022/07/18 06:47:46;;;;;;;16.33;5.35;;;;;;;19.43;55.92;102107.81;5093449;28;20051;-58
2022/07/18 06:50:13;;;;;;;8.90;4.25;;;;;;;19.49;55.79;102106.78;5093509;28;20063;-58
2022/07/18 06:52:40;;;;;;;12.88;4.80;;;;;;;19.57;55.32;102111.91;5092985;28;20050;-57
2022/07/18 06:55:06;;;;;;;9.98;4.35;;;;;;;19.68;55.28;102100.03;5093234;28;20645;-58
2022/07/18 06:57:32;;;;;;;13.15;5.20;;;;;;;19.74;53.87;102099.81;5093113;28;20089;-58
2022/07/18 06:59:57;;;;;;;11.40;4.80;;;;;;;19.83;54.07;102098.66;5093180;28;20508;-58
2022/07/18 07:02:22;;;;;;;12.13;4.65;;;;;;;19.93;53.32;102105.41;5093160;28;20042;-58
2022/07/18 07:04:48;;;;;;;10.48;4.07;;;;;;;20.01;53.43;102105.19;5093358;28;20485;-59
2022/07/18 07:07:13;;;;;;;12.65;4.10;;;;;;;20.12;53.22;102106.56;5093063;28;20027;-58
2022/07/18 07:09:38;;;;;;;14.25;4.40;;;;;;;20.20;52.72;102100.13;5093043;28;20039;-58
2022/07/18 07:12:03;;;;;;;10.97;4.37;;;;;;;20.22;52.61;102107.13;5095017;28;20101;-57
2022/07/18 07:14:29;;;;;;;9.95;3.97;;;;;;;20.33;53.16;102104.97;5103152;28;20603;-58
2022/07/18 07:16:54;;;;;;;10.82;3.90;;;;;;;20.49;51.63;102106.22;5105252;28;20036;-58
2022/07/18 07:19:19;;;;;;;7.57;3.60;;;;;;;20.61;52.05;102107.56;5112981;28;20039;-58
2022/07/18 07:21:44;;;;;;;10.30;3.87;;;;;;;20.65;50.66;102106.56;5113176;28;20285;-59
2022/07/18 07:24:10;;;;;;;9.95;3.70;;;;;;;20.89;50.24;102118.13;5103053;28;20273;-58
2022/07/18 07:26:35;;;;;;;10.87;3.57;;;;;;;21.03;49.69;102113.16;5104723;28;20039;-59
2022/07/18 07:29:00;;;;;;;11.90;3.53;;;;;;;21.18;48.30;102106.41;5112842;28;20261;-59
2022/07/18 07:31:26;;;;;;;6.03;2.70;;;;;;;21.59;47.25;102104.00;5112647;28;20062;-60
2022/07/18 07:33:51;;;;;;;8.18;2.65;;;;;;;22.27;44.33;102113.69;5112652;28;20039;-59
2022/07/18 07:36:16;;;;;;;6.33;2.73;;;;;;;22.57;43.48;102104.38;5112248;28;20032;-58
2022/07/18 07:38:42;;;;;;;7.75;2.65;;;;;;;22.70;43.34;102110.03;5109255;28;20317;-59
2022/07/18 07:41:07;;;;;;;11.07;2.57;;;;;;;22.53;43.56;102092.94;5106715;28;20041;-58
2022/07/18 07:43:32;;;;;;;7.45;2.65;;;;;;;22.52;44.12;102098.34;5112765;28;20757;-57
2022/07/18 07:45:58;;;;;;;9.65;2.55;;;;;;;22.33;44.19;102102.75;5112669;28;20366;-58
2022/07/18 07:48:23;;;;;;;9.60;2.67;;;;;;;22.39;44.90;102108.69;5112574;28;20036;-58
2022/07/18 07:50:50;;;;;;;5.18;2.30;;;;;;;22.31;45.22;102092.16;5112205;28;20028;-58
2022/07/18 07:53:16;;;;;;;7.80;2.17;;;;;;;22.40;43.49;102094.41;5112037;28;20101;-59
2022/07/18 07:55:41;;;;;;;6.82;2.08;;;;;;;22.32;43.33;102087.69;5112505;28;20378;-58
2022/07/18 07:58:07;;;;;;;5.13;1.77;;;;;;;22.37;41.75;102080.34;5112430;28;20053;-59
2022/07/18 08:00:32;;;;;;;5.63;2.17;;;;;;;22.40;42.12;102070.41;5112401;28;20035;-59
2022/07/18 08:03:03;;;;;;;4.68;1.77;;;;;;;22.44;42.37;102079.16;5112356;28;20427;-59
2022/07/18 08:05:30;;;;;;;5.50;1.80;;;;;;;22.36;41.56;102074.13;5111854;28;20055;-58
2022/07/18 08:07:57;;;;;;;6.40;2.05;;;;;;;22.44;41.49;102069.34;5100735;28;20336;-58
2022/07/18 08:10:22;;;;;;;5.97;2.00;;;;;;;22.47;40.37;102074.56;5097484;27;20043;-59
2022/07/18 08:12:48;;;;;;;4.65;2.00;;;;;;;22.59;41.81;102070.47;5097390;28;20036;-58
2022/07/18 08:15:13;;;;;;;4.18;1.75;;;;;;;22.49;40.53;102070.03;5111994;28;20047;-59
2022/07/18 08:17:39;;;;;;;4.28;1.98;;;;;;;22.69;40.99;102065.59;5111711;28;20032;-59
2022/07/18 08:20:06;;;;;;;5.68;1.75;;;;;;;22.76;40.85;102061.72;5111964;28;20372;-59
2022/07/18 08:22:31;;;;;;;5.68;1.98;;;;;;;22.79;41.10;102057.16;5111950;28;20097;-59
2022/07/18 08:24:56;;;;;;;5.03;2.15;;;;;;;22.95;40.31;102060.00;5112083;28;20044;-58
2022/07/18 08:27:21;;;;;;;3.95;1.80;;;;;;;23.00;40.46;102055.31;5111982;28;20023;-59
2022/07/18 08:29:47;;;;;;;5.53;1.90;;;;;;;23.07;40.76;102050.53;5112105;28;20340;-58
2022/07/18 08:32:13;;;;;;;4.30;1.80;;;;;;;23.23;39.65;102063.09;5111798;28;20391;-58
2022/07/18 08:34:38;;;;;;;5.20;1.83;;;;;;;23.38;40.74;102055.34;5111822;28;20027;-59
2022/07/18 08:37:03;;;;;;;7.18;2.20;;;;;;;23.50;39.92;102065.44;5105291;28;20036;-59
2022/07/18 08:39:29;;;;;;;3.88;1.90;;;;;;;23.62;40.58;102066.66;5105177;28;20063;-59
2022/07/18 08:41:54;;;;;;;6.17;1.87;;;;;;;23.63;40.49;102063.06;5109000;28;21152;-59
2022/07/18 08:44:20;;;;;;;3.88;1.80;;;;;;;23.67;40.72;102057.50;5105028;28;20368;-58
2022/07/18 08:46:50;;;;;;;3.03;1.60;;;;;;;23.66;40.75;102073.59;5113958;28;20040;-59
2022/07/18 08:49:15;;;;;;;5.50;1.73;;;;;;;23.66;40.96;102074.47;5115064;28;20394;-59
2022/07/18 08:51:42;;;;;;;5.70;2.13;;;;;;;23.73;42.11;102075.88;5116024;28;20027;-58
2022/07/18 08:54:08;;;;;;;4.18;1.90;;;;;;;23.77;41.19;102071.25;5115631;28;20039;-59
2022/07/18 08:56:33;;;;;;;6.40;2.20;;;;;;;23.82;41.11;102063.88;5115814;28;20054;-58
2022/07/18 08:59:02;;;;;;;6.55;2.00;;;;;;;23.97;41.93;102059.59;5115289;28;20453;-58
2022/07/18 09:01:28;;;;;;;4.43;2.00;;;;;;;24.00;41.19;102059.44;5115797;28;20046;-58
2022/07/18 09:06:49;;;;;;;6.93;2.47;;;;;;;24.35;42.14;102055.88;5115549;28;20123;-59
2022/07/18 09:09:16;;;;;;;5.25;2.33;;;;;;;24.56;40.43;102057.44;5103408;28;20040;-58
2022/07/18 09:11:59;;;;;;;7.07;2.30;;;;;;;24.73;40.28;102058.34;5094972;28;20101;-58
2022/07/18 09:14:32;;;;;;;5.63;1.90;;;;;;;25.04;40.50;102062.94;5095087;28;20038;-59
2022/07/18 09:17:18;;;;;;;5.95;1.92;;;;;;;25.78;37.68;102058.75;5094975;28;20089;-60
2022/07/18 09:19:56;;;;;;;4.47;1.88;;;;;;;27.19;35.90;102056.44;5095170;28;20039;-58
2022/07/18 09:22:23;;;;;;;5.38;2.08;;;;;;;28.45;33.07;102052.56;5094448;28;20053;-58
2022/07/18 09:24:58;;;;;;;4.95;1.95;;;;;;;29.50;32.34;102058.53;5094597;28;20043;-58
2022/07/18 09:27:33;;;;;;;3.42;1.90;;;;;;;30.23;31.19;102053.00;5094998;28;20024;-58
2022/07/18 09:30:15;;;;;;;4.05;1.80;;;;;;;30.52;30.75;102050.72;5094525;28;20036;-58
2022/07/18 09:32:41;;;;;;;5.95;1.88;;;;;;;30.84;29.08;102050.91;5094833;28;20039;-58
2022/07/18 09:35:29;;;;;;;4.75;1.77;;;;;;;30.77;30.36;102054.13;5094635;28;20355;-57
2022/07/18 09:38:05;;;;;;;4.18;1.55;;;;;;;30.44;30.39;102059.44;5094853;28;20060;-58
2022/07/18 09:40:36;;;;;;;3.80;1.83;;;;;;;30.20;30.88;102061.34;5103111;28;20500;-58
2022/07/18 09:43:04;;;;;;;3.63;1.70;;;;;;;29.54;30.71;102068.97;5114738;28;20134;-58
2022/07/18 09:45:35;;;;;;;2.97;1.80;;;;;;;28.92;31.95;102065.44;5114876;28;20027;-58
2022/07/18 09:48:05;;;;;;;6.13;1.80;;;;;;;28.54;33.05;102065.41;5114783;28;20051;-59
2022/07/18 09:50:37;;;;;;;7.15;1.77;;;;;;;28.22;32.29;102057.72;5114830;28;20031;-59
2022/07/18 09:53:14;;;;;;;5.53;1.73;;;;;;;27.97;33.95;102046.84;5114426;28;20542;-59
2022/07/18 09:55:55;;;;;;;3.55;1.75;;;;;;;28.06;34.26;102054.28;5114668;28;20039;-58
2022/07/18 09:58:26;;;;;;;3.20;2.00;;;;;;;28.01;33.98;102054.63;5113492;28;20412;-60
2022/07/18 10:00:53;;;;;;;4.32;2.15;;;;;;;28.10;34.52;102055.81;5114223;28;20035;-57
2022/07/18 10:03:19;;;;;;;8.38;2.25;;;;;;;28.07;34.42;102056.00;5114695;28;20115;-60
2022/07/18 10:05:47;;;;;;;6.57;2.05;;;;;;;28.26;33.75;102050.25;5114454;28;20039;-60
2022/07/18 10:08:16;;;;;;;6.30;2.00;;;;;;;28.23;33.83;102048.63;5114490;28;20055;-59
2022/07/18 10:10:44;;;;;;;2.80;1.92;;;;;;;28.50;34.34;102047.72;5110190;28;20032;-59
2022/07/18 10:13:09;;;;;;;5.80;2.15;;;;;;;28.65;33.44;102052.03;5093811;28;20123;-59
2022/07/18 10:15:37;;;;;;;5.22;1.80;;;;;;;28.61;33.29;102046.00;5094227;28;20268;-59
2022/07/18 10:18:06;;;;;;;6.07;2.63;;;;;;;28.75;33.72;102045.88;5093786;28;20039;-59
2022/07/18 10:20:37;;;;;;;6.70;1.60;;;;;;;28.86;33.34;102049.69;5093796;28;20451;-60
2022/07/18 10:23:15;;;;;;;4.28;1.92;;;;;;;28.79;33.42;102049.22;5093749;28;20109;-59
2022/07/18 10:25:41;;;;;;;3.00;1.70;;;;;;;28.93;33.03;102046.44;5093614;28;20112;-59
2022/07/18 10:28:14;;;;;;;2.72;1.60;;;;;;;29.07;32.79;102046.31;5093902;28;20031;-59
2022/07/18 10:30:45;;;;;;;5.10;1.70;;;;;;;29.03;31.65;102046.66;5093625;28;20095;-59
2022/07/18 10:33:40;;;;;;;4.95;1.90;;;;;;;29.01;32.92;102043.19;5093355;28;20032;-59
2022/07/18 10:36:12;;;;;;;2.60;1.63;;;;;;;29.11;31.42;102041.53;5093623;28;20043;-59
2022/07/18 10:38:39;;;;;;;6.40;1.80;;;;;;;29.22;31.12;102036.25;5093600;28;20042;-59
2022/07/18 10:41:06;;;;;;;7.35;2.10;;;;;;;29.33;31.14;102036.31;5093640;28;20719;-59
2022/07/18 10:43:33;;;;;;;5.05;1.63;;;;;;;29.51;31.33;102036.81;5093441;28;20477;-61
2022/07/18 10:46:00;;;;;;;6.72;1.90;;;;;;;29.56;30.53;102026.56;5093250;28;20422;-59
2022/07/18 10:48:37;;;;;;;5.90;1.73;;;;;;;29.70;31.13;102018.28;5093467;28;20065;-60
2022/07/18 10:51:10;;;;;;;5.35;2.30;;;;;;;29.92;31.18;102031.03;5093468;28;20032;-60
2022/07/18 10:53:53;;;;;;;3.88;1.83;;;;;;;29.96;30.70;102032.50;5093332;28;20081;-61
2022/07/18 10:56:39;;;;;;;2.50;1.65;;;;;;;29.89;30.74;102023.16;5092996;28;20028;-59
2022/07/18 10:59:25;;;;;;;4.05;1.60;;;;;;;29.86;30.45;102028.78;5075319;28;20048;-60
2022/07/18 11:01:56;;;;;;;4.05;1.98;;;;;;;29.93;30.90;102029.19;5092687;28;20367;-61
2022/07/18 11:04:23;;;;;;;3.35;1.60;;;;;;;30.09;31.03;102027.06;5092997;28;20050;-60
2022/07/18 11:06:53;;;;;;;4.13;1.70;;;;;;;30.20;31.38;102018.13;5093203;28;20178;-61
2022/07/18 11:09:45;;;;;;;10.82;1.83;;;;;;;30.26;31.43;102021.22;5091718;28;20118;-60
2022/07/18 11:12:20;;;;;;;4.35;1.95;;;;;;;30.39;31.56;102021.13;5082069;28;20036;-60
2022/07/18 11:15:10;;;;;;;8.20;2.65;;;;;;;30.50;31.31;102010.31;5093083;28;20028;-59
2022/07/18 11:17:51;;;;;;;4.05;1.80;;;;;;;30.50;31.65;102010.31;5092641;28;20101;-61
2022/07/18 11:20:37;;;;;;;5.93;1.75;;;;;;;30.46;31.57;102011.56;5092685;28;20043;-59
2022/07/18 11:23:05;;;;;;;6.75;2.08;;;;;;;30.45;30.39;102012.53;5092730;28;20028;-58
2022/07/18 11:25:30;;;;;;;5.95;1.90;;;;;;;30.39;30.85;102010.31;5092509;28;20127;-59
2022/07/18 11:27:56;;;;;;;3.65;1.73;;;;;;;30.60;30.86;101999.69;5092465;28;20042;-59
2022/07/18 11:30:23;;;;;;;8.77;2.40;;;;;;;30.76;29.92;102002.88;5092236;28;20358;-59